Time;durP1;ratioP1;P1;durP2;ratioP2;P2;SDS_P1;SDS_P2;PMS_P1;PMS_P2;Temp;Humidity;BMP_temperature;BMP_pressure;BME280_temperature;BME280_humidity;BME280_pressure;Samples;Min_cycle;Max_cycle;Signal;HPM_P1;HPM_P2
2022/06/24 00:02:20;;;;;;;7.88;4.00;;;22.50;80.50;;;;;;5110925;28;20052;-66
2022/06/24 00:04:55;;;;;;;4.70;4.20;;;22.50;80.00;;;;;;5110584;28;20016;-65
2022/06/24 00:07:21;;;;;;;3.97;3.65;;;22.50;80.00;;;;;;5110851;28;20036;-66
2022/06/24 00:09:48;;;;;;;4.50;4.05;;;22.40;80.00;;;;;;5110454;28;20523;-65
2022/06/24 00:12:16;;;;;;;6.78;4.00;;;22.40;79.60;;;;;;5110481;28;20063;-65
2022/06/24 00:14:45;;;;;;;4.38;3.70;;;22.40;79.60;;;;;;5110678;28;20027;-65
2022/06/24 00:17:12;;;;;;;4.32;3.55;;;22.40;79.50;;;;;;5110580;28;20028;-65
2022/06/24 00:19:56;;;;;;;7.03;4.32;;;22.40;79.90;;;;;;5110582;28;20028;-65
2022/06/24 00:22:23;;;;;;;8.32;4.13;;;22.40;79.10;;;;;;5110747;28;20544;-65
2022/06/24 00:24:49;;;;;;;4.53;4.00;;;22.30;78.90;;;;;;5110498;28;20027;-65
2022/06/24 00:27:24;;;;;;;4.10;3.70;;;22.40;79.20;;;;;;5110418;28;20031;-65
2022/06/24 00:29:51;;;;;;;7.82;4.32;;;22.30;79.10;;;;;;5110403;28;20497;-65
2022/06/24 00:32:30;;;;;;;4.78;3.55;;;22.30;78.60;;;;;;5110042;28;20031;-65
2022/06/24 00:35:05;;;;;;;4.63;4.05;;;22.20;78.70;;;;;;5110137;28;20028;-66
2022/06/24 00:37:32;;;;;;;5.75;4.00;;;22.20;78.70;;;;;;5109719;28;20398;-65
2022/06/24 00:40:21;;;;;;;4.18;3.78;;;22.20;78.90;;;;;;5110166;28;20028;-65
2022/06/24 00:42:47;;;;;;;5.00;3.80;;;22.10;79.00;;;;;;5109755;28;20534;-65
2022/06/24 00:45:38;;;;;;;5.90;3.90;;;22.10;79.00;;;;;;5109904;28;20019;-65
2022/06/24 00:48:13;;;;;;;4.07;3.70;;;22.10;79.10;;;;;;5109754;28;20080;-65
2022/06/24 00:50:42;;;;;;;7.00;4.00;;;22.00;79.50;;;;;;5096973;28;20093;-65
2022/06/24 00:53:08;;;;;;;7.30;3.88;;;22.00;79.80;;;;;;5096151;28;20032;-65
2022/06/24 00:55:37;;;;;;;5.63;3.70;;;21.90;80.00;;;;;;5096393;28;20119;-65
2022/06/24 00:58:04;;;;;;;4.68;3.75;;;21.80;80.00;;;;;;5095968;28;20016;-65
2022/06/24 01:00:32;;;;;;;6.35;3.88;;;21.80;81.10;;;;;;5096090;28;20082;-66
2022/06/24 01:03:01;;;;;;;8.45;3.90;;;21.80;80.60;;;;;;5095996;28;20382;-66
2022/06/24 01:05:28;;;;;;;4.30;3.90;;;21.70;81.10;;;;;;5096022;28;20073;-65
2022/06/24 01:07:54;;;;;;;6.03;3.85;;;21.70;81.20;;;;;;5096153;28;20039;-65
2022/06/24 01:10:20;;;;;;;5.43;4.50;;;21.60;80.90;;;;;;5095852;28;20020;-65
2022/06/24 01:12:45;;;;;;;8.80;4.15;;;21.60;80.70;;;;;;5095999;28;20024;-65
2022/06/24 01:15:11;;;;;;;7.55;4.25;;;21.60;81.00;;;;;;5095706;28;20082;-65
2022/06/24 01:17:37;;;;;;;5.88;4.13;;;21.60;80.90;;;;;;5095940;28;20078;-65
2022/06/24 01:20:05;;;;;;;5.68;3.90;;;21.60;81.50;;;;;;5095911;28;20420;-65
2022/06/24 01:22:31;;;;;;;5.95;4.10;;;21.60;81.20;;;;;;5095843;28;20466;-65
2022/06/24 01:24:57;;;;;;;7.07;3.78;;;21.50;81.50;;;;;;5095770;28;20051;-66
2022/06/24 01:27:22;;;;;;;5.28;4.30;;;21.50;81.40;;;;;;5095497;28;20067;-65
2022/06/24 01:29:49;;;;;;;4.63;3.88;;;21.50;81.20;;;;;;5095704;28;20027;-65
2022/06/24 01:32:14;;;;;;;9.50;4.13;;;21.60;81.00;;;;;;5094476;28;20111;-65
2022/06/24 01:34:40;;;;;;;7.60;4.25;;;21.70;80.70;;;;;;5095379;28;20067;-65
2022/06/24 01:37:06;;;;;;;4.95;4.05;;;21.70;81.40;;;;;;5095242;28;20063;-65
2022/06/24 01:39:31;;;;;;;6.07;4.30;;;21.80;81.60;;;;;;5095339;28;20538;-65
2022/06/24 01:41:57;;;;;;;5.70;4.50;;;21.80;81.90;;;;;;5095311;28;20059;-65
2022/06/24 01:44:24;;;;;;;6.18;3.97;;;21.90;81.60;;;;;;5095407;28;20020;-65
2022/06/24 01:46:50;;;;;;;8.32;4.45;;;21.80;81.60;;;;;;5095335;28;20530;-65
2022/06/24 01:49:16;;;;;;;9.10;4.30;;;21.80;81.80;;;;;;5095053;28;20167;-65
2022/06/24 01:51:44;;;;;;;9.20;4.20;;;21.70;82.00;;;;;;5095081;28;20048;-65
2022/06/24 01:54:10;;;;;;;4.95;4.43;;;21.70;82.80;;;;;;5094930;28;20031;-65
2022/06/24 01:56:35;;;;;;;6.97;4.07;;;21.70;83.30;;;;;;5094954;28;20106;-65
2022/06/24 01:59:01;;;;;;;7.43;3.92;;;21.60;84.10;;;;;;5095063;28;20028;-65
2022/06/24 02:01:27;;;;;;;4.35;3.78;;;21.60;85.10;;;;;;5093899;28;20031;-65
2022/06/24 02:03:53;;;;;;;5.53;3.90;;;21.60;85.70;;;;;;5094768;28;20020;-66
2022/06/24 02:06:19;;;;;;;4.32;3.92;;;21.60;86.60;;;;;;5093456;28;20031;-65
2022/06/24 02:08:44;;;;;;;6.72;3.97;;;21.50;87.00;;;;;;5094715;28;20046;-65
2022/06/24 02:13:58;;;;;;;4.43;3.92;;;21.50;88.60;;;;;;5094440;28;20028;-66
2022/06/24 02:16:25;;;;;;;6.95;4.78;;;21.50;89.80;;;;;;5094784;28;20524;-65
2022/06/24 02:18:51;;;;;;;6.85;4.50;;;21.60;91.00;;;;;;5094654;28;20106;-65
2022/06/24 02:21:17;;;;;;;11.68;4.70;;;21.80;92.40;;;;;;5094697;28;20031;-65
2022/06/24 02:23:43;;;;;;;8.25;4.45;;;21.90;94.00;;;;;;5094427;28;20019;-65
2022/06/24 02:26:09;;;;;;;7.18;4.55;;;22.10;96.40;;;;;;5094604;28;20027;-65
2022/06/24 02:28:35;;;;;;;10.00;3.92;;;22.30;98.30;;;;;;5094583;28;20052;-65
2022/06/24 02:31:02;;;;;;;8.75;4.72;;;22.40;99.90;;;;;;5094500;28;20047;-65
2022/06/24 02:33:28;;;;;;;7.72;4.40;;;22.40;99.90;;;;;;5094494;28;20031;-65
2022/06/24 02:35:54;;;;;;;9.02;4.30;;;22.30;99.90;;;;;;5094385;28;20482;-65
2022/06/24 02:38:20;;;;;;;8.27;4.00;;;22.40;99.90;;;;;;5093909;28;20076;-65
2022/06/24 02:40:45;;;;;;;10.13;3.63;;;22.50;99.90;;;;;;5094358;28;20020;-65
2022/06/24 02:43:16;;;;;;;11.43;4.25;;;22.40;99.90;;;;;;5094331;28;20386;-65
2022/06/24 02:45:44;;;;;;;7.90;3.75;;;22.50;99.90;;;;;;5094058;28;20024;-65
2022/06/24 02:48:10;;;;;;;8.43;3.40;;;;;;;;;;5094183;28;20508;-65
2022/06/24 02:50:40;;;;;;;11.02;3.38;;;22.50;99.90;;;;;;5093912;28;20071;-65
2022/06/24 02:53:06;;;;;;;9.75;3.85;;;22.50;99.90;;;;;;5094151;28;20123;-65
2022/06/24 02:55:31;;;;;;;10.98;3.60;;;22.50;99.90;;;;;;5092948;28;20059;-66
2022/06/24 02:57:57;;;;;;;9.93;3.35;;;22.50;99.90;;;;;;5093985;28;20032;-65
2022/06/24 03:00:22;;;;;;;6.65;3.53;;;22.50;99.90;;;;;;5093732;28;20383;-66
2022/06/24 03:02:48;;;;;;;9.02;3.75;;;22.50;99.90;;;;;;5092516;28;20031;-65
2022/06/24 03:05:13;;;;;;;11.70;3.75;;;22.50;99.90;;;;;;5093706;28;20032;-65
2022/06/24 03:07:39;;;;;;;12.65;3.58;;;22.40;99.90;;;;;;5093910;28;20034;-65
2022/06/24 03:10:05;;;;;;;8.23;3.45;;;22.40;99.90;;;;;;5093821;28;20058;-65
2022/06/24 03:12:30;;;;;;;7.07;3.53;;;22.30;99.90;;;;;;5093426;28;20020;-66
2022/06/24 03:14:56;;;;;;;7.72;3.33;;;22.30;99.90;;;;;;5093785;28;20028;-65
2022/06/24 03:17:22;;;;;;;10.07;3.50;;;22.30;99.90;;;;;;5093700;28;20020;-65
2022/06/24 03:19:47;;;;;;;8.38;3.78;;;22.30;99.90;;;;;;5093466;28;20073;-66
2022/06/24 03:22:13;;;;;;;6.03;3.10;;;22.20;99.90;;;;;;5093702;28;20378;-65
2022/06/24 03:24:38;;;;;;;6.93;3.38;;;22.20;99.90;;;;;;5093433;28;20056;-65
2022/06/24 03:27:04;;;;;;;9.07;3.50;;;22.20;99.90;;;;;;5093460;28;20024;-65
2022/06/24 03:29:31;;;;;;;11.30;4.10;;;22.20;99.90;;;;;;5093380;28;20024;-66
2022/06/24 03:31:57;;;;;;;9.48;3.88;;;22.20;99.90;;;;;;5092469;28;20078;-66
2022/06/24 03:34:23;;;;;;;11.55;3.72;;;22.20;99.90;;;;;;5093513;28;20020;-65
2022/06/24 03:36:49;;;;;;;9.20;3.58;;;22.10;99.90;;;;;;5093539;28;20024;-65
2022/06/24 03:39:15;;;;;;;11.23;4.00;;;22.10;99.90;;;;;;5092978;28;20040;-65
2022/06/24 03:41:41;;;;;;;8.63;4.10;;;22.10;99.90;;;;;;5093495;28;20554;-66
2022/06/24 03:44:06;;;;;;;13.18;3.78;;;22.10;99.90;;;;;;5093447;28;20111;-65
2022/06/24 03:46:32;;;;;;;7.80;3.50;;;22.10;99.90;;;;;;5093438;28;20085;-66
2022/06/24 03:48:58;;;;;;;8.90;3.88;;;22.00;99.90;;;;;;5092244;28;20363;-65
2022/06/24 03:51:23;;;;;;;11.13;4.22;;;22.00;99.90;;;;;;5093147;28;20103;-65
2022/06/24 03:53:49;;;;;;;10.30;3.80;;;22.00;99.90;;;;;;5093112;28;20051;-65
2022/06/24 03:56:14;;;;;;;11.15;4.45;;;21.90;99.90;;;;;;5093340;28;20479;-66
2022/06/24 03:58:40;;;;;;;12.30;4.20;;;21.90;99.90;;;;;;5093224;28;20031;-65
2022/06/24 04:01:07;;;;;;;11.20;4.00;;;21.90;99.90;;;;;;5093285;28;20492;-65
2022/06/24 04:03:33;;;;;;;9.13;4.55;;;21.90;99.90;;;;;;5093275;28;20060;-65
2022/06/24 04:05:58;;;;;;;10.88;4.65;;;21.90;99.90;;;;;;5092960;28;20070;-65
2022/06/24 04:08:24;;;;;;;11.15;4.38;;;21.90;99.90;;;;;;5093161;28;20093;-65
2022/06/24 04:10:49;;;;;;;10.05;4.85;;;21.90;99.90;;;;;;5092911;28;20052;-65
2022/06/24 04:13:15;;;;;;;10.02;4.38;;;21.80;99.90;;;;;;5092927;28;20111;-65
2022/06/24 04:15:46;;;;;;;11.60;5.82;;;21.80;99.90;;;;;;5093184;28;20055;-65
2022/06/24 04:18:11;;;;;;;11.40;4.57;;;21.80;99.90;;;;;;5093077;28;20082;-65
2022/06/24 04:20:37;;;;;;;12.05;5.25;;;21.80;99.90;;;;;;5092833;28;20471;-65
2022/06/24 04:23:03;;;;;;;9.93;5.13;;;21.70;99.90;;;;;;5092939;28;20020;-65
2022/06/24 04:25:28;;;;;;;7.07;4.70;;;21.70;99.90;;;;;;5095403;28;20025;-65
2022/06/24 04:27:54;;;;;;;11.45;5.05;;;21.70;99.90;;;;;;5096641;28;20081;-65
2022/06/24 04:30:19;;;;;;;10.50;5.20;;;21.70;99.90;;;;;;5096633;28;20077;-65
2022/06/24 04:32:45;;;;;;;11.38;4.75;;;21.70;99.90;;;;;;5096612;28;20112;-66
2022/06/24 04:35:10;;;;;;;9.23;4.68;;;21.70;99.90;;;;;;5096569;28;20031;-65
2022/06/24 04:37:37;;;;;;;12.23;4.85;;;21.70;99.90;;;;;;5096411;28;20047;-65
2022/06/24 04:40:05;;;;;;;7.60;4.47;;;21.60;99.90;;;;;;5096690;28;20047;-65
2022/06/24 04:42:31;;;;;;;11.07;4.30;;;21.60;99.90;;;;;;5096623;28;20035;-66
2022/06/24 04:44:56;;;;;;;8.63;5.05;;;21.60;99.90;;;;;;5096578;28;20020;-65
2022/06/24 04:47:22;;;;;;;10.50;4.97;;;21.60;99.90;;;;;;5096548;28;20016;-65
2022/06/24 04:49:48;;;;;;;11.02;4.63;;;21.60;99.90;;;;;;5096444;28;20031;-65
2022/06/24 04:52:15;;;;;;;6.35;4.35;;;21.60;99.90;;;;;;5096428;28;20024;-65
2022/06/24 04:54:42;;;;;;;8.32;4.80;;;21.60;99.90;;;;;;5096133;28;20070;-66
2022/06/24 04:57:08;;;;;;;8.70;4.47;;;21.60;99.90;;;;;;5096110;28;20023;-65
2022/06/24 04:59:34;;;;;;;12.32;4.80;;;21.50;99.90;;;;;;5096336;28;20077;-65
2022/06/24 05:01:59;;;;;;;12.02;4.75;;;21.60;99.90;;;;;;5096117;28;20028;-66
2022/06/24 05:04:25;;;;;;;11.93;4.95;;;21.50;99.90;;;;;;5096194;28;20024;-65
2022/06/24 05:06:51;;;;;;;9.63;5.15;;;21.50;99.90;;;;;;5096168;28;20024;-65
2022/06/24 05:09:17;;;;;;;9.40;5.35;;;21.50;99.90;;;;;;5096047;28;20050;-65
2022/06/24 05:11:44;;;;;;;14.90;5.60;;;21.40;99.90;;;;;;5095813;28;20024;-65
2022/06/24 05:14:09;;;;;;;8.93;5.03;;;21.40;99.90;;;;;;5096042;28;20028;-65
2022/06/24 05:16:35;;;;;;;10.27;5.28;;;21.40;99.90;;;;;;5095796;28;20546;-65
2022/06/24 05:19:00;;;;;;;10.68;5.88;;;21.30;99.90;;;;;;5095656;28;20031;-65
2022/06/24 05:21:26;;;;;;;8.57;4.88;;;21.30;99.90;;;;;;5095603;28;20036;-65
2022/06/24 05:23:51;;;;;;;11.75;5.50;;;21.30;99.90;;;;;;5095824;28;20158;-65
2022/06/24 05:26:17;;;;;;;14.60;5.65;;;21.20;99.90;;;;;;5095561;28;20363;-65
2022/06/24 05:28:43;;;;;;;9.77;5.60;;;21.10;99.90;;;;;;5095495;28;20020;-65
2022/06/24 05:31:08;;;;;;;13.60;5.95;;;21.10;99.90;;;;;;5095656;28;20043;-66
2022/06/24 05:33:34;;;;;;;12.07;5.38;;;21.00;99.90;;;;;;5094286;28;20378;-66
2022/06/24 05:36:00;;;;;;;13.60;6.20;;;20.90;99.90;;;;;;5095194;28;20032;-64
2022/06/24 05:38:25;;;;;;;14.82;5.95;;;20.60;99.90;;;;;;5094985;28;20051;-66
2022/06/24 05:40:52;;;;;;;13.75;6.40;;;20.50;99.90;;;;;;5095263;28;20031;-65
2022/06/24 05:43:18;;;;;;;10.27;5.50;;;20.30;99.90;;;;;;5095455;28;20024;-65
2022/06/24 05:45:45;;;;;;;14.20;5.68;;;20.10;99.90;;;;;;5095363;28;20017;-65
2022/06/24 05:48:10;;;;;;;10.50;5.95;;;19.90;99.90;;;;;;5094988;28;20032;-66
2022/06/24 05:50:37;;;;;;;11.88;6.25;;;19.90;99.90;;;;;;5095243;28;20027;-65
2022/06/24 05:55:50;;;;;;;12.68;5.80;;;19.80;99.90;;;;;;5094735;28;20107;-65
2022/06/24 05:58:16;;;;;;;11.82;6.10;;;19.70;99.90;;;;;;5094787;28;20107;-65
2022/06/24 06:00:42;;;;;;;13.48;6.90;;;19.70;99.90;;;;;;5094881;28;20024;-65
2022/06/24 06:03:08;;;;;;;11.25;6.43;;;19.60;99.90;;;;;;5094948;28;20020;-65
2022/06/24 06:05:33;;;;;;;12.73;6.50;;;19.50;99.90;;;;;;5095004;28;20355;-66
2022/06/24 06:07:59;;;;;;;10.35;6.32;;;19.40;99.90;;;;;;5094741;28;20499;-66
2022/06/24 06:10:25;;;;;;;14.13;7.30;;;19.30;99.90;;;;;;5094889;28;20028;-66
2022/06/24 06:12:50;;;;;;;10.50;6.47;;;19.30;99.90;;;;;;5094590;28;20020;-66
2022/06/24 06:15:16;;;;;;;16.50;7.35;;;19.30;99.90;;;;;;5094569;28;20059;-66
2022/06/24 06:17:41;;;;;;;16.05;7.13;;;19.30;99.90;;;;;;5094637;28;20073;-66
2022/06/24 06:20:07;;;;;;;15.88;6.60;;;19.20;99.90;;;;;;5094308;28;20027;-66
2022/06/24 06:22:33;;;;;;;13.50;6.35;;;19.30;99.90;;;;;;5094501;28;20029;-66
2022/06/24 06:24:59;;;;;;;14.75;5.93;;;19.30;99.90;;;;;;5094447;28;20020;-66
2022/06/24 06:27:24;;;;;;;15.02;6.60;;;19.20;99.90;;;;;;5094649;28;20020;-66
2022/06/24 06:29:50;;;;;;;18.17;6.65;;;19.20;99.90;;;;;;5093087;28;20048;-66
2022/06/24 06:32:16;;;;;;;13.60;5.97;;;19.20;99.90;;;;;;5094478;28;20030;-66
2022/06/24 06:34:41;;;;;;;14.70;6.65;;;19.20;99.90;;;;;;5094781;28;20020;-66
2022/06/24 06:37:07;;;;;;;12.95;6.35;;;19.20;99.90;;;;;;5094147;28;20024;-66
2022/06/24 06:39:32;;;;;;;11.15;5.57;;;19.10;99.90;;;;;;5094153;28;20028;-67
2022/06/24 06:41:58;;;;;;;12.02;5.55;;;19.00;99.90;;;;;;5094140;28;20028;-66
2022/06/24 06:44:24;;;;;;;12.57;5.93;;;18.90;99.90;;;;;;5092185;28;20115;-67
2022/06/24 06:46:50;;;;;;;10.13;5.35;;;18.90;99.90;;;;;;5091669;28;20020;-65
2022/06/24 06:49:15;;;;;;;11.13;4.75;;;18.90;99.90;;;;;;5093391;28;20489;-66
2022/06/24 06:51:41;;;;;;;10.68;5.18;;;18.90;99.90;;;;;;5093541;28;20067;-66
2022/06/24 06:54:07;;;;;;;9.63;4.65;;;18.90;99.90;;;;;;5093159;28;20024;-66
2022/06/24 06:56:32;;;;;;;8.98;4.57;;;18.90;99.90;;;;;;5093045;28;20044;-66
2022/06/24 06:58:58;;;;;;;13.32;5.90;;;19.00;99.90;;;;;;5093894;28;20111;-66
2022/06/24 07:01:23;;;;;;;7.40;4.70;;;19.00;99.90;;;;;;5082950;28;20470;-66
2022/06/24 07:03:49;;;;;;;7.78;4.47;;;19.20;99.90;;;;;;5089241;28;20385;-66
2022/06/24 07:06:15;;;;;;;10.77;5.10;;;19.20;99.90;;;;;;5091383;28;20032;-66
2022/06/24 07:08:40;;;;;;;7.53;4.47;;;19.40;99.90;;;;;;5091153;28;20032;-66
2022/06/24 07:11:06;;;;;;;12.27;4.68;;;19.50;99.90;;;;;;5083937;28;20032;-66
2022/06/24 07:13:31;;;;;;;9.73;4.65;;;19.60;99.90;;;;;;5093541;28;20064;-66
2022/06/24 07:15:57;;;;;;;10.00;4.30;;;19.90;99.90;;;;;;5086156;28;20021;-65
2022/06/24 07:18:23;;;;;;;5.82;3.53;;;20.20;99.90;;;;;;5074786;28;20038;-66
2022/06/24 07:20:49;;;;;;;7.75;3.50;;;20.60;99.90;;;;;;5084302;28;20047;-66
2022/06/24 07:23:14;;;;;;;8.77;3.20;;;21.00;99.90;;;;;;5089762;28;20025;-66
2022/06/24 07:25:40;;;;;;;7.53;3.08;;;21.60;99.90;;;;;;5093114;28;20031;-65
2022/06/24 07:28:06;;;;;;;5.93;2.50;;;21.80;99.90;;;;;;5091789;28;20028;-65
2022/06/24 07:30:32;;;;;;;9.65;2.95;;;21.70;99.90;;;;;;5089882;28;20056;-66
2022/06/24 07:32:57;;;;;;;5.95;2.97;;;21.70;99.90;;;;;;5090440;28;20065;-66
2022/06/24 07:35:24;;;;;;;7.32;2.95;;;21.90;99.90;;;;;;5071228;28;20116;-66
2022/06/24 07:37:50;;;;;;;9.75;2.70;;;21.60;99.90;;;;;;5079771;28;20506;-66
2022/06/24 07:40:15;;;;;;;7.38;3.25;;;21.60;99.90;;;;;;5092954;28;20066;-66
2022/06/24 07:42:42;;;;;;;8.63;3.45;;;21.50;99.90;;;;;;5092773;28;20028;-66
2022/06/24 07:45:09;;;;;;;5.32;2.90;;;21.50;99.90;;;;;;5093072;28;20035;-66
2022/06/24 07:47:36;;;;;;;6.18;2.63;;;21.50;99.90;;;;;;5092909;28;20062;-66
2022/06/24 07:50:04;;;;;;;7.47;3.63;;;21.60;99.90;;;;;;5091665;28;20386;-66
2022/06/24 07:52:30;;;;;;;6.68;2.85;;;21.60;99.90;;;;;;5088575;28;20036;-65
2022/06/24 07:57:41;;;;;;;8.00;3.40;;;21.50;99.90;;;;;;5090033;28;20024;-65
2022/06/24 08:00:07;;;;;;;7.78;2.92;;;21.60;99.90;;;;;;5094907;28;20046;-65
2022/06/24 08:02:33;;;;;;;7.22;2.90;;;21.70;99.90;;;;;;5097195;28;20505;-66
2022/06/24 08:04:59;;;;;;;6.60;3.05;;;21.70;99.90;;;;;;5096751;28;20024;-66
2022/06/24 08:07:25;;;;;;;8.80;3.30;;;21.90;99.90;;;;;;5095036;28;20039;-65
2022/06/24 08:09:50;;;;;;;9.48;3.22;;;22.20;99.90;;;;;;5093318;28;20032;-66
2022/06/24 08:12:16;;;;;;;6.15;2.88;;;22.50;99.90;;;;;;5095581;28;20028;-66
2022/06/24 08:14:41;;;;;;;7.20;2.83;;;22.80;99.90;;;;;;5094467;28;20028;-66
2022/06/24 08:17:07;;;;;;;6.00;2.90;;;22.90;99.90;;;;;;5093743;28;20077;-66
2022/06/24 08:19:33;;;;;;;6.38;2.70;;;22.70;99.90;;;;;;5102092;28;20028;-66
2022/06/24 08:22:01;;;;;;;5.97;2.85;;;22.70;99.90;;;;;;5096164;28;20063;-66
2022/06/24 08:24:27;;;;;;;8.85;3.40;;;22.80;99.90;;;;;;5094275;28;20180;-66
2022/06/24 08:26:52;;;;;;;8.20;3.00;;;22.70;99.90;;;;;;5096642;28;20032;-66
2022/06/24 08:29:18;;;;;;;6.53;2.85;;;22.50;99.90;;;;;;5096699;28;20106;-67
2022/06/24 08:31:43;;;;;;;8.63;3.10;;;22.60;99.90;;;;;;5096982;28;20550;-66
2022/06/24 08:34:10;;;;;;;8.48;3.40;;;22.60;99.90;;;;;;5096862;28;20016;-66
2022/06/24 08:36:36;;;;;;;5.85;3.08;;;22.50;99.90;;;;;;5092089;28;20063;-66
2022/06/24 08:39:02;;;;;;;6.03;3.38;;;22.40;99.90;;;;;;5080666;28;20067;-67
2022/06/24 08:41:28;;;;;;;7.13;3.20;;;22.20;99.90;;;;;;5080817;28;20075;-66
2022/06/24 08:43:55;;;;;;;7.85;2.90;;;22.20;99.90;;;;;;5076668;28;20040;-66
2022/06/24 08:46:22;;;;;;;6.85;2.97;;;22.10;99.90;;;;;;5093218;28;20035;-66
2022/06/24 08:48:48;;;;;;;3.97;2.75;;;22.20;99.90;;;;;;5096502;28;20076;-65
2022/06/24 08:51:15;;;;;;;6.95;3.00;;;22.20;99.90;;;;;;5096421;28;20024;-66
2022/06/24 08:53:42;;;;;;;6.80;2.80;;;22.30;99.90;;;;;;5096412;28;20394;-65
2022/06/24 08:56:08;;;;;;;11.18;3.38;;;22.30;99.90;;;;;;5096018;28;20024;-65
2022/06/24 08:58:35;;;;;;;6.50;3.00;;;22.30;99.90;;;;;;5089850;28;20024;-65
2022/06/24 09:01:01;;;;;;;8.00;3.40;;;22.30;99.90;;;;;;5074519;28;20020;-65
2022/06/24 09:03:27;;;;;;;10.77;3.38;;;22.40;99.90;;;;;;5075621;28;20380;-66
2022/06/24 09:05:53;;;;;;;6.68;3.30;;;22.70;99.90;;;;;;5075881;28;20067;-66
2022/06/24 09:08:19;;;;;;;5.63;3.53;;;22.90;99.90;;;;;;5075741;28;20029;-66
2022/06/24 09:11:18;;;;;;;7.80;3.28;;;23.20;99.90;;;;;;5095310;28;20367;-65
2022/06/24 09:13:41;;;;;;;10.65;3.20;;;;;;;;;;5083469;28;20028;-65
2022/06/24 09:16:08;;;;;;;9.00;3.58;;;;;;;;;;5088266;28;20024;-65
2022/06/24 09:18:33;;;;;;;9.45;3.67;;;24.80;99.90;;;;;;5095201;28;20036;-66
2022/06/24 09:21:02;;;;;;;7.93;3.47;;;24.40;99.90;;;;;;5095152;28;20108;-65
2022/06/24 09:23:28;;;;;;;7.53;3.13;;;24.40;99.90;;;;;;5099119;28;20024;-66
2022/06/24 09:25:57;;;;;;;8.65;3.25;;;24.80;99.90;;;;;;5103192;28;20031;-66
2022/06/24 09:28:24;;;;;;;12.07;3.85;;;25.10;99.90;;;;;;5077466;28;20033;-65
2022/06/24 09:30:50;;;;;;;12.77;3.40;;;24.40;99.90;;;;;;5073961;28;20100;-66
2022/06/24 09:33:18;;;;;;;7.97;3.53;;;24.00;99.90;;;;;;5079523;28;20398;-66
2022/06/24 09:35:44;;;;;;;6.57;3.30;;;23.90;99.90;;;;;;5093144;28;20032;-65
2022/06/24 09:38:11;;;;;;;7.15;3.00;;;23.70;99.90;;;;;;5082692;28;20127;-65
2022/06/24 09:40:40;;;;;;;7.97;3.80;;;23.70;99.90;;;;;;5086616;28;20379;-65
2022/06/24 09:43:09;;;;;;;10.52;4.50;;;23.80;99.90;;;;;;5095341;28;20024;-66
2022/06/24 09:45:51;;;;;;;6.25;3.20;;;23.80;99.90;;;;;;5093529;28;20024;-65
2022/06/24 09:48:34;;;;;;;10.05;3.72;;;23.80;99.90;;;;;;5094645;28;20482;-65
2022/06/24 09:51:03;;;;;;;6.63;3.13;;;23.90;99.90;;;;;;5090430;28;20032;-65
2022/06/24 09:53:32;;;;;;;9.57;3.85;;;23.70;99.90;;;;;;5091357;28;20119;-65
2022/06/24 09:55:59;;;;;;;5.70;3.55;;;23.50;99.90;;;;;;5068272;28;20036;-65
2022/06/24 09:58:25;;;;;;;8.63;3.30;;;23.50;99.90;;;;;;5090599;28;20028;-65
2022/06/24 10:00:51;;;;;;;9.65;4.05;;;23.20;99.90;;;;;;5094343;28;20063;-65
2022/06/24 10:03:18;;;;;;;7.50;3.67;;;23.40;99.90;;;;;;5092044;28;20047;-65
2022/06/24 10:05:47;;;;;;;8.20;3.28;;;23.50;99.90;;;;;;5087791;28;20386;-66
2022/06/24 10:08:19;;;;;;;9.02;3.55;;;23.80;99.90;;;;;;5093052;28;20115;-65
2022/06/24 10:10:52;;;;;;;8.20;3.67;;;24.10;99.90;;;;;;5093479;28;20035;-65
2022/06/24 10:13:30;;;;;;;7.10;3.10;;;24.40;99.90;;;;;;5091190;28;20032;-65
2022/06/24 10:15:57;;;;;;;8.70;3.50;;;24.50;99.90;;;;;;5083654;28;20189;-65
2022/06/24 10:18:28;;;;;;;7.25;3.22;;;24.50;99.90;;;;;;5091997;28;20031;-65
2022/06/24 10:20:59;;;;;;;8.77;3.20;;;24.60;99.90;;;;;;5094509;28;20020;-64
2022/06/24 10:23:49;;;;;;;8.07;3.42;;;24.40;99.90;;;;;;5088734;28;20027;-64
2022/06/24 10:26:25;;;;;;;8.95;5.00;;;23.90;99.90;;;;;;5091359;28;20027;-66
2022/06/24 10:37:02;;;;;;;6.95;4.70;;;;;;;;;;5111118;27;20852;-66
2022/06/24 10:39:30;;;;;;;9.23;4.40;;;25.90;99.90;;;;;;5111143;28;20023;-66
2022/06/24 10:42:14;;;;;;;7.72;4.30;;;25.80;99.90;;;;;;5110366;28;20027;-66
2022/06/24 10:44:53;;;;;;;6.45;3.63;;;26.60;99.90;;;;;;5111114;28;20521;-66
2022/06/24 10:50:06;;;;;;;8.05;5.88;;;26.60;99.90;;;;;;5111074;27;20299;-65
2022/06/24 10:52:38;;;;;;;9.05;6.53;;;25.70;99.90;;;;;;5115522;28;20024;-65
2022/06/24 10:58:09;;;;;;;12.52;8.65;;;23.90;99.90;;;;;;5111024;27;20392;-65
2022/06/24 11:00:47;;;;;;;15.40;9.88;;;23.50;99.90;;;;;;5093959;28;20553;-65
2022/06/24 11:03:19;;;;;;;11.20;8.88;;;23.40;99.90;;;;;;5089460;28;20020;-64
2022/06/24 11:05:50;;;;;;;10.13;7.65;;;23.10;99.90;;;;;;5109917;28;20082;-64
2022/06/24 11:08:19;;;;;;;8.05;5.88;;;22.90;99.90;;;;;;5093232;28;20147;-66
2022/06/24 11:10:47;;;;;;;7.53;6.15;;;22.80;99.90;;;;;;5113340;28;20066;-68
2022/06/24 11:13:13;;;;;;;8.18;7.38;;;22.90;99.90;;;;;;5111042;28;20492;-68
2022/06/24 11:15:43;;;;;;;12.50;9.45;;;22.80;99.90;;;;;;5099334;28;20028;-68
2022/06/24 11:18:11;;;;;;;8.70;6.95;;;22.50;99.90;;;;;;5088900;28;20056;-68
2022/06/24 11:20:40;;;;;;;5.47;4.97;;;22.20;99.90;;;;;;5104678;28;20106;-67
2022/06/24 11:23:08;;;;;;;5.70;4.65;;;21.90;99.90;;;;;;5110933;28;20024;-69
2022/06/24 11:25:35;;;;;;;5.05;4.57;;;21.80;99.90;;;;;;5107130;28;20028;-67
2022/06/24 11:28:00;;;;;;;6.68;5.63;;;21.90;99.90;;;;;;5112902;28;20156;-67
2022/06/24 11:30:26;;;;;;;6.45;5.95;;;21.90;99.90;;;;;;5110479;28;20085;-67
2022/06/24 11:32:54;;;;;;;6.55;5.63;;;21.90;99.90;;;;;;5110867;28;20547;-67
2022/06/24 11:35:20;;;;;;;8.18;5.40;;;21.90;99.90;;;;;;5101425;28;20466;-67
2022/06/24 11:37:46;;;;;;;6.72;4.50;;;21.90;99.90;;;;;;5104054;28;20126;-67
2022/06/24 11:40:29;;;;;;;5.53;4.85;;;21.80;99.90;;;;;;5105506;28;20032;-67
2022/06/24 11:42:55;;;;;;;5.20;4.70;;;22.00;99.90;;;;;;5116258;28;20034;-67
2022/06/24 11:45:43;;;;;;;6.60;6.00;;;22.10;99.90;;;;;;5108775;28;20056;-67
2022/06/24 11:48:11;;;;;;;9.00;6.15;;;22.20;99.90;;;;;;5109997;28;20031;-67
2022/06/24 11:50:38;;;;;;;7.85;6.97;;;22.70;99.90;;;;;;5107837;28;20023;-67
2022/06/24 11:53:06;;;;;;;8.93;7.53;;;22.80;99.90;;;;;;5118015;28;20028;-67
2022/06/24 11:55:35;;;;;;;8.90;8.02;;;23.10;99.90;;;;;;5118150;27;20095;-68
2022/06/24 11:58:03;;;;;;;11.73;10.48;;;23.40;99.90;;;;;;5109795;28;20027;-69
2022/06/24 12:00:33;;;;;;;9.00;8.07;;;23.70;99.90;;;;;;5109791;28;20073;-68
2022/06/24 12:03:01;;;;;;;7.57;5.57;;;23.90;99.90;;;;;;5108962;28;20497;-65
2022/06/24 12:05:28;;;;;;;5.03;4.53;;;23.90;99.90;;;;;;5114893;28;20028;-66
2022/06/24 12:07:55;;;;;;;4.65;4.25;;;23.90;99.90;;;;;;5124921;28;20046;-65
2022/06/24 12:10:21;;;;;;;6.82;4.20;;;24.20;99.90;;;;;;5101458;28;20547;-65
2022/06/24 12:13:05;;;;;;;4.97;3.80;;;24.60;99.90;;;;;;5096323;28;20374;-66
2022/06/24 12:18:18;;;;;;;10.35;4.03;;;23.90;99.90;;;;;;5093850;27;20827;-65
2022/06/24 12:20:59;;;;;;;11.02;8.15;;;23.50;99.90;;;;;;5111068;28;20339;-65
2022/06/24 12:23:32;;;;;;;7.13;5.72;;;23.70;99.90;;;;;;5104320;28;20055;-65
2022/06/24 12:25:58;;;;;;;6.55;4.80;;;23.90;99.90;;;;;;5107945;28;20363;-65
2022/06/24 12:28:25;;;;;;;6.40;5.43;;;23.70;99.90;;;;;;5109499;28;20028;-65
2022/06/24 12:31:11;;;;;;;7.50;5.50;;;23.70;99.90;;;;;;5105673;28;20012;-65
2022/06/24 12:36:33;;;;;;;5.50;4.63;;;24.00;99.90;;;;;;5070073;28;20415;-65
2022/06/24 12:39:04;;;;;;;5.07;3.58;;;23.80;99.90;;;;;;5069477;28;20433;-65
2022/06/24 12:41:43;;;;;;;5.63;4.40;;;23.70;99.90;;;;;;5046379;28;20018;-65
2022/06/24 12:44:08;;;;;;;5.20;4.30;;;23.80;99.90;;;;;;5037002;28;20415;-64
2022/06/24 12:51:59;;;;;;;5.97;3.83;;;24.10;99.90;;;;;;5074644;28;20040;-66
2022/06/24 12:54:25;;;;;;;4.53;4.13;;;24.60;99.90;;;;;;5083808;28;20098;-66
2022/06/24 12:56:51;;;;;;;5.20;4.50;;;25.10;99.90;;;;;;5080698;28;20029;-66
2022/06/24 12:59:17;;;;;;;5.38;4.30;;;24.70;99.90;;;;;;5078286;28;20033;-66
2022/06/24 13:01:44;;;;;;;7.03;4.93;;;24.60;99.90;;;;;;5087957;28;20120;-66
2022/06/24 13:04:12;;;;;;;4.90;4.40;;;24.30;99.90;;;;;;5081686;28;20386;-66
2022/06/24 13:06:38;;;;;;;5.68;5.18;;;24.30;99.90;;;;;;5070473;28;20036;-66
2022/06/24 13:09:05;;;;;;;6.57;4.85;;;24.10;99.90;;;;;;5084396;28;20044;-66
2022/06/24 13:11:32;;;;;;;5.43;5.00;;;24.30;99.90;;;;;;5089870;28;20024;-66
2022/06/24 13:13:58;;;;;;;5.35;4.60;;;24.50;99.90;;;;;;5078645;28;20025;-66
2022/06/24 13:16:24;;;;;;;4.95;4.55;;;24.80;99.90;;;;;;5069793;28;20032;-66
2022/06/24 13:18:49;;;;;;;5.82;4.72;;;25.10;99.90;;;;;;5072963;28;20044;-66
2022/06/24 13:21:15;;;;;;;6.00;5.50;;;25.60;99.90;;;;;;5069959;28;20029;-66